Time;durP1;ratioP1;P1;durP2;ratioP2;P2;SDS_P1;SDS_P2;PMS_P1;PMS_P2;Temp;Humidity;BMP_temperature;BMP_pressure;BME280_temperature;BME280_humidity;BME280_pressure;Samples;Min_cycle;Max_cycle;Signal;HPM_P1;HPM_P2
2022/11/09 00:00:36;;;;;;;31.85;19.33;;;;;;;;;;6298361;22;20501;-83
2022/11/09 00:03:02;;;;;;;36.92;19.42;;;;;;;;;;6302012;22;19984;-84
2022/11/09 00:05:28;;;;;;;32.63;16.65;;;;;;;;;;6290839;22;19992;-84
2022/11/09 00:07:54;;;;;;;31.27;17.50;;;;;;;;;;6260115;22;20004;-84
2022/11/09 00:10:20;;;;;;;31.35;18.40;;;;;;;;;;6287530;22;19992;-84
2022/11/09 00:12:46;;;;;;;33.28;18.02;;;;;;;;;;6260028;22;20000;-84
2022/11/09 00:15:12;;;;;;;33.35;17.88;;;;;;;;;;6287005;22;20007;-84
2022/11/09 00:17:38;;;;;;;31.52;17.75;;;;;;;;;;6286755;22;19999;-84
2022/11/09 00:20:04;;;;;;;31.55;17.25;;;;;;;;;;6259071;22;20090;-84
2022/11/09 00:22:30;;;;;;;32.88;17.63;;;;;;;;;;6260042;22;20000;-84
2022/11/09 00:24:56;;;;;;;28.80;16.65;;;;;;;;;;6260204;22;20003;-84
2022/11/09 00:27:22;;;;;;;35.33;19.42;;;;;;;;;;6260634;22;20050;-84
2022/11/09 00:29:48;;;;;;;31.55;18.25;;;;;;;;;;6284405;22;20004;-82
2022/11/09 00:32:14;;;;;;;29.25;17.92;;;;;;;;;;6286332;22;20004;-84
2022/11/09 00:34:40;;;;;;;32.15;18.38;;;;;;;;;;6286147;22;20557;-84
2022/11/09 00:37:07;;;;;;;31.92;19.23;;;;;;;;;;6256828;22;20038;-84
2022/11/09 00:39:33;;;;;;;34.22;19.85;;;;;;;;;;6288229;22;20086;-84
2022/11/09 00:41:58;;;;;;;37.55;21.33;;;;;;;;;;6287589;22;20004;-84
2022/11/09 00:44:25;;;;;;;35.40;21.95;;;;;;;;;;6287556;22;20008;-84
2022/11/09 00:46:50;;;;;;;36.67;18.73;;;;;;;;;;6287050;22;20004;-84
2022/11/09 00:49:16;;;;;;;32.10;18.15;;;;;;;;;;6286622;22;20004;-84
2022/11/09 00:51:42;;;;;;;35.25;17.98;;;;;;;;;;6287160;22;20006;-84
2022/11/09 00:54:08;;;;;;;31.88;18.45;;;;;;;;;;6259002;22;20003;-83
2022/11/09 00:56:34;;;;;;;32.85;18.20;;;;;;;;;;6286109;22;20340;-84
2022/11/09 00:59:00;;;;;;;34.55;19.98;;;;;;;;;;6284452;22;20204;-84
2022/11/09 01:01:27;;;;;;;34.03;19.02;;;;;;;;;;6258780;22;20300;-84
2022/11/09 01:03:53;;;;;;;35.38;19.58;;;;;;;;;;6285549;22;20007;-84
2022/11/09 01:06:20;;;;;;;38.15;18.23;;;;;;;;;;6258482;22;20004;-84
2022/11/09 01:08:47;;;;;;;31.92;18.77;;;;;;;;;;6258065;22;20356;-83
2022/11/09 01:11:13;;;;;;;31.50;17.17;;;;;;;;;;6285277;22;20002;-84
2022/11/09 01:13:39;;;;;;;28.75;17.08;;;;;;;;;;6285473;22;19999;-84
2022/11/09 01:16:08;;;;;;;32.05;19.20;;;;;;;;;;6285230;22;20014;-84
2022/11/09 01:18:34;;;;;;;32.13;17.63;;;;;;;;;;6257045;22;20011;-83
2022/11/09 01:21:01;;;;;;;29.27;17.48;;;;;;;;;;6258433;22;20004;-84
2022/11/09 01:23:27;;;;;;;32.72;18.13;;;;;;;;;;6273473;22;20007;-82
2022/11/09 01:25:58;;;;;;;30.40;17.77;;;;;;;;;;6302813;22;20035;-83
2022/11/09 01:28:24;;;;;;;33.67;18.98;;;;;;;;;;6302171;22;19999;-82
2022/11/09 01:30:50;;;;;;;34.58;19.25;;;;;;;;;;6302399;22;20040;-82
2022/11/09 01:33:16;;;;;;;33.53;18.63;;;;;;;;;;6291031;22;20011;-83
2022/11/09 01:35:42;;;;;;;34.03;19.45;;;;;;;;;;6286893;22;20006;-83
2022/11/09 01:38:09;;;;;;;32.25;18.80;;;;;;;;;;6258754;22;20008;-84
2022/11/09 01:40:36;;;;;;;27.95;17.98;;;;;;;;;;6286521;22;20432;-83
2022/11/09 01:43:06;;;;;;;33.88;19.40;;;;;;;;;;6286171;22;20000;-82
2022/11/09 01:45:32;;;;;;;31.45;17.77;;;;;;;;;;6285070;22;20065;-83
2022/11/09 01:48:00;;;;;;;33.38;18.35;;;;;;;;;;6286219;22;20003;-83
2022/11/09 01:50:34;;;;;;;32.95;17.55;;;;;;;;;;6267151;22;20132;-83
2022/11/09 01:53:01;;;;;;;31.92;17.02;;;;;;;;;;6289739;22;20039;-82
2022/11/09 01:55:27;;;;;;;33.03;19.63;;;;;;;;;;6299662;22;20000;-82
2022/11/09 01:57:53;;;;;;;32.95;18.65;;;;;;;;;;6300315;22;20027;-81
2022/11/09 02:00:19;;;;;;;29.33;17.75;;;;;;;;;;6274257;22;20440;-81
2022/11/09 02:03:11;;;;;;;34.53;19.40;;;;;;;;;;6263577;22;20079;-83
2022/11/09 02:05:40;;;;;;;32.05;19.58;;;;;;;;;;6132299;23;20037;-82
2022/11/09 02:08:06;;;;;;;33.83;19.33;;;;;;;;;;6131071;23;20012;-83
2022/11/09 02:10:45;;;;;;;34.58;19.38;;;;;;;;;;6131548;23;20009;-83
2022/11/09 02:13:12;;;;;;;37.50;20.02;;;;;;;;;;6131531;23;20125;-83
2022/11/09 02:15:38;;;;;;;35.60;20.88;;;;;;;;;;6107369;23;20092;-83
2022/11/09 02:18:04;;;;;;;35.95;19.55;;;;;;;;;;6131748;23;20014;-83
2022/11/09 02:20:43;;;;;;;41.58;22.23;;;;;;;;;;6132453;23;20162;-82
2022/11/09 02:23:09;;;;;;;42.78;22.55;;;;;;;;;;6132718;23;20025;-83
2022/11/09 02:25:35;;;;;;;47.45;25.17;;;;;;;;;;6107583;23;20045;-83
2022/11/09 02:28:01;;;;;;;41.13;22.10;;;;;;;;;;6131496;23;20045;-83
2022/11/09 02:30:27;;;;;;;42.30;21.90;;;;;;;;;;6132186;23;20010;-82
2022/11/09 02:32:53;;;;;;;46.72;25.70;;;;;;;;;;6132566;23;20049;-83
2022/11/09 02:35:19;;;;;;;40.17;23.05;;;;;;;;;;6131958;23;20010;-83
2022/11/09 02:37:47;;;;;;;40.38;23.48;;;;;;;;;;6130188;23;20002;-82
2022/11/09 02:40:20;;;;;;;40.15;22.20;;;;;;;;;;6131201;23;20002;-82
2022/11/09 02:42:46;;;;;;;40.22;22.05;;;;;;;;;;6205335;22;20004;-83
2022/11/09 02:45:12;;;;;;;42.60;22.00;;;;;;;;;;6283389;22;20004;-83
2022/11/09 02:47:38;;;;;;;38.85;21.65;;;;;;;;;;6285112;22;20064;-83
2022/11/09 02:50:05;;;;;;;39.00;21.25;;;;;;;;;;6257208;22;20006;-83
2022/11/09 02:52:31;;;;;;;42.03;23.35;;;;;;;;;;6284598;22;20094;-83
2022/11/09 02:54:57;;;;;;;39.78;22.40;;;;;;;;;;6283434;22;20011;-83
2022/11/09 02:57:23;;;;;;;37.08;21.27;;;;;;;;;;6256953;22;20012;-83
2022/11/09 02:59:49;;;;;;;44.50;23.67;;;;;;;;;;6284387;22;20006;-83
2022/11/09 03:02:15;;;;;;;32.50;21.00;;;;;;;;;;6284333;22;19996;-83
2022/11/09 03:04:41;;;;;;;39.47;19.65;;;;;;;;;;6283673;22;20018;-83
2022/11/09 03:07:07;;;;;;;37.95;21.75;;;;;;;;;;6283902;22;20071;-83
2022/11/09 03:09:33;;;;;;;39.17;21.00;;;;;;;;;;6256983;22;20004;-82
2022/11/09 03:12:27;;;;;;;43.45;22.60;;;;;;;;;;6285189;22;20003;-82
2022/11/09 03:14:45;;;;;;;40.80;23.35;;;;;;;;;;6283885;22;20008;-83
2022/11/09 03:17:12;;;;;;;43.70;23.42;;;;;;;;;;6285481;22;20031;-83
2022/11/09 03:19:39;;;;;;;44.75;22.13;;;;;;;;;;6285161;22;19996;-83
2022/11/09 03:22:05;;;;;;;43.55;21.13;;;;;;;;;;6258167;22;20030;-83
2022/11/09 03:24:31;;;;;;;47.28;22.63;;;;;;;;;;6284789;22;20008;-83
2022/11/09 03:26:57;;;;;;;44.45;23.77;;;;;;;;;;6291268;22;19988;-82
2022/11/09 03:29:23;;;;;;;49.97;25.35;;;;;;;;;;6297842;22;20026;-82
2022/11/09 03:31:49;;;;;;;54.65;25.42;;;;;;;;;;6293043;22;20000;-83
2022/11/09 03:34:15;;;;;;;56.70;25.60;;;;;;;;;;6261102;22;20309;-83
2022/11/09 03:36:41;;;;;;;57.55;25.10;;;;;;;;;;6260162;22;20008;-83
2022/11/09 03:39:08;;;;;;;55.08;26.27;;;;;;;;;;6286251;22;20502;-83
2022/11/09 03:41:34;;;;;;;60.90;27.67;;;;;;;;;;6287436;22;19996;-83
2022/11/09 03:44:00;;;;;;;53.33;26.35;;;;;;;;;;6287241;22;20363;-82
2022/11/09 03:46:26;;;;;;;61.25;28.27;;;;;;;;;;6293616;22;19999;-82
2022/11/09 03:48:52;;;;;;;60.15;28.42;;;;;;;;;;6295345;22;20325;-82
2022/11/09 03:51:18;;;;;;;64.97;28.33;;;;;;;;;;6290012;22;19995;-82
2022/11/09 03:53:45;;;;;;;67.38;29.52;;;;;;;;;;6287710;22;20479;-82
2022/11/09 03:56:11;;;;;;;68.03;29.75;;;;;;;;;;6287398;22;20432;-83
2022/11/09 03:58:37;;;;;;;72.93;30.63;;;;;;;;;;6286854;22;20010;-83
2022/11/09 04:01:03;;;;;;;66.03;27.85;;;;;;;;;;6259429;22;20474;-82
2022/11/09 04:03:29;;;;;;;72.75;28.40;;;;;;;;;;6258621;22;19999;-83
2022/11/09 04:05:57;;;;;;;63.35;29.27;;;;;;;;;;6285842;22;19996;-83
2022/11/09 04:08:23;;;;;;;63.72;29.20;;;;;;;;;;6285600;22;20000;-82
2022/11/09 04:10:49;;;;;;;64.72;28.02;;;;;;;;;;6286239;22;20335;-83
2022/11/09 04:13:15;;;;;;;70.57;29.23;;;;;;;;;;6284957;22;20343;-82
2022/11/09 04:15:42;;;;;;;68.35;30.67;;;;;;;;;;6285730;22;20003;-83
2022/11/09 04:18:10;;;;;;;64.53;29.40;;;;;;;;;;6285042;22;20382;-82
2022/11/09 04:20:36;;;;;;;73.30;31.63;;;;;;;;;;6284784;22;19996;-83
2022/11/09 04:23:03;;;;;;;76.47;33.70;;;;;;;;;;6286378;22;20079;-83
2022/11/09 04:25:33;;;;;;;67.50;33.15;;;;;;;;;;6286388;22;20487;-82
2022/11/09 04:28:00;;;;;;;69.55;31.33;;;;;;;;;;6285577;22;20491;-83
2022/11/09 04:30:27;;;;;;;83.43;36.13;;;;;;;;;;6258668;22;20008;-80
2022/11/09 04:32:54;;;;;;;73.85;34.17;;;;;;;;;;6283980;22;19999;-82
2022/11/09 04:35:20;;;;;;;76.60;33.17;;;;;;;;;;6257127;22;20007;-83
2022/11/09 04:37:53;;;;;;;71.35;32.60;;;;;;;;;;6284013;22;20014;-82
2022/11/09 04:40:19;;;;;;;75.22;35.30;;;;;;;;;;6284303;22;20007;-82
2022/11/09 04:42:45;;;;;;;60.30;30.52;;;;;;;;;;6284626;22;20070;-84
2022/11/09 04:45:11;;;;;;;66.28;29.48;;;;;;;;;;6284156;22;20618;-84
2022/11/09 04:47:37;;;;;;;69.15;32.17;;;;;;;;;;6285546;22;20057;-82
2022/11/09 04:50:03;;;;;;;68.00;28.33;;;;;;;;;;6285108;22;20004;-82
2022/11/09 04:52:29;;;;;;;59.70;28.52;;;;;;;;;;6285606;22;20035;-84
2022/11/09 04:54:55;;;;;;;67.10;28.58;;;;;;;;;;6258863;22;20038;-83
2022/11/09 04:57:21;;;;;;;61.20;29.15;;;;;;;;;;6286204;22;20011;-84
2022/11/09 04:59:47;;;;;;;70.63;30.13;;;;;;;;;;6285413;22;19999;-84
2022/11/09 05:02:13;;;;;;;65.75;28.92;;;;;;;;;;6286293;22;20015;-84
2022/11/09 05:04:39;;;;;;;68.80;29.90;;;;;;;;;;6254014;22;20010;-83
2022/11/09 05:07:05;;;;;;;69.32;30.60;;;;;;;;;;6284389;22;20488;-83
2022/11/09 05:09:31;;;;;;;60.70;28.05;;;;;;;;;;6283148;22;20000;-83
2022/11/09 05:11:57;;;;;;;68.25;29.30;;;;;;;;;;6252156;22;20359;-83
2022/11/09 05:14:23;;;;;;;61.10;27.48;;;;;;;;;;6254581;22;20007;-83
2022/11/09 05:16:49;;;;;;;60.75;27.85;;;;;;;;;;6284101;22;20078;-84
2022/11/09 05:19:15;;;;;;;61.70;26.88;;;;;;;;;;6256146;22;20086;-83
2022/11/09 05:21:41;;;;;;;56.08;26.27;;;;;;;;;;6284623;22;20003;-83
2022/11/09 05:24:07;;;;;;;61.17;27.35;;;;;;;;;;6256211;22;20023;-84
2022/11/09 05:26:35;;;;;;;64.22;29.48;;;;;;;;;;6282707;22;20408;-84
2022/11/09 05:29:02;;;;;;;62.08;28.95;;;;;;;;;;6280909;22;20517;-83
2022/11/09 05:31:29;;;;;;;59.90;26.27;;;;;;;;;;6254721;22;20007;-84
2022/11/09 05:33:55;;;;;;;68.72;29.95;;;;;;;;;;6255378;22;20004;-83
2022/11/09 05:36:22;;;;;;;68.30;28.58;;;;;;;;;;6282814;22;20083;-83
2022/11/09 05:38:48;;;;;;;68.90;31.25;;;;;;;;;;6283409;22;20059;-83
2022/11/09 05:41:14;;;;;;;64.13;29.00;;;;;;;;;;6283256;22;19996;-82
2022/11/09 05:43:40;;;;;;;57.75;26.60;;;;;;;;;;6268733;22;20016;-82
2022/11/09 05:46:07;;;;;;;69.25;29.05;;;;;;;;;;6287716;22;20000;-82
2022/11/09 05:48:33;;;;;;;58.25;27.45;;;;;;;;;;6284509;22;20339;-83
2022/11/09 05:51:01;;;;;;;65.07;29.60;;;;;;;;;;6284492;22;20050;-83
2022/11/09 05:53:27;;;;;;;54.60;25.48;;;;;;;;;;6283717;22;20344;-83
2022/11/09 05:55:53;;;;;;;65.53;29.92;;;;;;;;;;6282948;22;20042;-81
2022/11/09 05:58:19;;;;;;;63.28;27.77;;;;;;;;;;6284165;22;20320;-82
2022/11/09 06:00:45;;;;;;;59.55;26.90;;;;;;;;;;6283459;22;19999;-83
2022/11/09 06:03:11;;;;;;;61.17;28.40;;;;;;;;;;6284099;22;19991;-82
2022/11/09 06:05:38;;;;;;;59.08;26.65;;;;;;;;;;6284204;22;20381;-83
2022/11/09 06:08:06;;;;;;;54.80;26.38;;;;;;;;;;6284602;22;19999;-83
2022/11/09 06:10:32;;;;;;;57.22;27.75;;;;;;;;;;6282836;22;20074;-83
2022/11/09 06:12:59;;;;;;;59.72;26.65;;;;;;;;;;6284140;22;20010;-83
2022/11/09 06:15:25;;;;;;;68.55;31.17;;;;;;;;;;6258848;22;20004;-82
2022/11/09 06:17:52;;;;;;;58.20;28.60;;;;;;;;;;6255961;22;20014;-83
2022/11/09 06:20:18;;;;;;;62.58;25.98;;;;;;;;;;6282790;22;20030;-84
2022/11/09 06:22:44;;;;;;;61.53;28.25;;;;;;;;;;6283762;22;19999;-83
2022/11/09 06:25:10;;;;;;;66.47;28.60;;;;;;;;;;6284934;22;20015;-84
2022/11/09 06:27:37;;;;;;;68.28;28.33;;;;;;;;;;6284714;22;20057;-83
2022/11/09 06:30:03;;;;;;;68.85;29.25;;;;;;;;;;6284254;22;20340;-84
2022/11/09 06:32:29;;;;;;;70.78;31.95;;;;;;;;;;6258444;22;20008;-84
2022/11/09 06:34:55;;;;;;;67.15;29.75;;;;;;;;;;6284412;22;20378;-82
2022/11/09 06:37:21;;;;;;;68.43;28.85;;;;;;;;;;6259536;22;20012;-84
2022/11/09 06:39:47;;;;;;;68.43;27.38;;;;;;;;;;6284607;22;20003;-84
2022/11/09 06:42:13;;;;;;;63.63;27.70;;;;;;;;;;6257919;22;19999;-84
2022/11/09 06:44:39;;;;;;;65.88;28.23;;;;;;;;;;6283811;22;20012;-82
2022/11/09 06:47:05;;;;;;;53.42;26.13;;;;;;;;;;6285360;22;20505;-83
2022/11/09 06:49:31;;;;;;;58.67;26.83;;;;;;;;;;6294305;22;20010;-82
2022/11/09 06:51:57;;;;;;;55.28;26.23;;;;;;;;;;6274951;22;20000;-83
2022/11/09 06:54:23;;;;;;;64.10;27.48;;;;;;;;;;6294917;22;20058;-84
2022/11/09 06:56:49;;;;;;;58.47;25.90;;;;;;;;;;6285431;22;20012;-85
2022/11/09 06:59:15;;;;;;;56.60;24.02;;;;;;;;;;6255905;22;20007;-85
2022/11/09 07:01:41;;;;;;;57.90;25.25;;;;;;;;;;6283883;22;20059;-84
2022/11/09 07:04:07;;;;;;;54.80;23.55;;;;;;;;;;6258004;22;20499;-84
2022/11/09 07:06:33;;;;;;;52.83;22.98;;;;;;;;;;6284306;22;20076;-82
2022/11/09 07:09:00;;;;;;;51.83;23.95;;;;;;;;;;6283090;22;20062;-84
2022/11/09 07:11:26;;;;;;;54.42;23.75;;;;;;;;;;6257661;22;19999;-84
2022/11/09 07:13:52;;;;;;;52.95;23.88;;;;;;;;;;6284172;22;20000;-82
2022/11/09 07:16:18;;;;;;;50.65;22.38;;;;;;;;;;6259423;22;20068;-81
2022/11/09 07:18:44;;;;;;;48.47;23.10;;;;;;;;;;6285247;22;20007;-83
2022/11/09 07:21:11;;;;;;;47.22;21.92;;;;;;;;;;6283578;22;19999;-82
2022/11/09 07:23:37;;;;;;;51.45;22.00;;;;;;;;;;6284985;22;20184;-83
2022/11/09 07:26:03;;;;;;;47.47;22.40;;;;;;;;;;6258584;22;20011;-81
2022/11/09 07:28:29;;;;;;;53.97;22.17;;;;;;;;;;6286893;22;20004;-83
2022/11/09 07:31:02;;;;;;;57.13;24.73;;;;;;;;;;6285703;22;20007;-82
2022/11/09 07:33:29;;;;;;;54.00;23.35;;;;;;;;;;6285480;22;19999;-82
2022/11/09 07:35:57;;;;;;;52.17;26.80;;;;;;;;;;6290136;22;20344;-81
2022/11/09 07:38:23;;;;;;;51.25;23.52;;;;;;;;;;6293015;22;20004;-82
2022/11/09 07:40:49;;;;;;;51.90;24.45;;;;;;;;;;6302817;22;20057;-80
2022/11/09 07:43:16;;;;;;;46.33;21.33;;;;;;;;;;6302731;22;20000;-81
2022/11/09 07:45:42;;;;;;;53.83;24.27;;;;;;;;;;6277122;22;20059;-80
2022/11/09 07:48:11;;;;;;;56.17;23.88;;;;;;;;;;6298375;22;20000;-82
2022/11/09 07:50:37;;;;;;;47.90;22.67;;;;;;;;;;6284925;22;20000;-82
2022/11/09 07:53:05;;;;;;;49.80;23.42;;;;;;;;;;6284994;22;20027;-83
2022/11/09 07:55:32;;;;;;;49.83;23.92;;;;;;;;;;6285850;22;20035;-83
2022/11/09 07:57:59;;;;;;;47.80;21.88;;;;;;;;;;6259166;22;20008;-82
2022/11/09 08:00:26;;;;;;;54.72;25.95;;;;;;;;;;6284710;22;20000;-83
2022/11/09 08:02:52;;;;;;;46.35;23.50;;;;;;;;;;6257966;22;20003;-83
2022/11/09 08:05:18;;;;;;;43.75;21.60;;;;;;;;;;6285018;22;20049;-83
2022/11/09 08:07:44;;;;;;;47.20;23.25;;;;;;;;;;6269001;22;19995;-82
2022/11/09 08:10:10;;;;;;;46.15;21.50;;;;;;;;;;6303701;22;20004;-81
2022/11/09 08:12:36;;;;;;;46.53;22.48;;;;;;;;;;6277472;22;20019;-82
2022/11/09 08:15:02;;;;;;;42.80;22.08;;;;;;;;;;6290971;22;20394;-84
2022/11/09 08:17:28;;;;;;;41.70;20.67;;;;;;;;;;6257938;22;20004;-83
2022/11/09 08:19:54;;;;;;;44.70;20.75;;;;;;;;;;6259418;22;20007;-83
2022/11/09 08:22:20;;;;;;;51.60;21.58;;;;;;;;;;6258975;22;20011;-83
2022/11/09 08:24:46;;;;;;;42.70;20.50;;;;;;;;;;6258083;22;20029;-82
2022/11/09 08:27:12;;;;;;;42.35;21.70;;;;;;;;;;6283818;22;20011;-83
2022/11/09 08:29:38;;;;;;;47.72;21.42;;;;;;;;;;6283742;22;20000;-83
2022/11/09 08:32:04;;;;;;;43.38;22.13;;;;;;;;;;6283842;22;20008;-83
2022/11/09 08:34:30;;;;;;;52.22;22.83;;;;;;;;;;6283783;22;20019;-82
2022/11/09 08:36:59;;;;;;;42.22;21.17;;;;;;;;;;6256570;22;20011;-83
2022/11/09 08:39:25;;;;;;;48.13;21.80;;;;;;;;;;6284254;22;20030;-83
2022/11/09 08:41:51;;;;;;;47.00;22.08;;;;;;;;;;6257472;22;20003;-83
2022/11/09 08:44:17;;;;;;;48.65;22.00;;;;;;;;;;6283926;22;20009;-83
2022/11/09 08:46:43;;;;;;;48.50;23.55;;;;;;;;;;6284852;22;20008;-83
2022/11/09 08:49:09;;;;;;;47.38;21.73;;;;;;;;;;6285054;22;20518;-82
2022/11/09 08:51:35;;;;;;;55.10;26.88;;;;;;;;;;6258597;22;19999;-84
2022/11/09 08:54:01;;;;;;;49.03;23.73;;;;;;;;;;6284882;22;19999;-82
2022/11/09 08:56:27;;;;;;;50.92;22.75;;;;;;;;;;6285853;22;20447;-82
2022/11/09 08:58:53;;;;;;;49.47;20.75;;;;;;;;;;6259072;22;20029;-82
2022/11/09 09:01:20;;;;;;;49.28;23.15;;;;;;;;;;6287153;22;20015;-83
2022/11/09 09:03:46;;;;;;;50.72;20.80;;;;;;;;;;6260945;22;20460;-83
2022/11/09 09:06:12;;;;;;;52.25;21.73;;;;;;;;;;6288053;22;20000;-83
2022/11/09 09:08:38;;;;;;;45.58;22.33;;;;;;;;;;6258755;22;20011;-82
2022/11/09 09:11:04;;;;;;;48.15;22.23;;;;;;;;;;6259211;22;20072;-82
2022/11/09 09:13:31;;;;;;;49.33;21.42;;;;;;;;;;6286507;22;20003;-83
2022/11/09 09:15:57;;;;;;;49.13;21.85;;;;;;;;;;6258924;22;20038;-83
2022/11/09 09:18:24;;;;;;;50.40;23.08;;;;;;;;;;6284410;22;20003;-82
2022/11/09 09:20:50;;;;;;;51.65;22.20;;;;;;;;;;6286097;22;20066;-83
2022/11/09 09:23:16;;;;;;;56.20;23.67;;;;;;;;;;6284604;22;20486;-82
2022/11/09 09:25:43;;;;;;;53.65;23.70;;;;;;;;;;6284741;22;20376;-83
2022/11/09 09:28:09;;;;;;;54.42;22.63;;;;;;;;;;6284969;22;20000;-82
2022/11/09 09:30:35;;;;;;;50.30;22.02;;;;;;;;;;6291465;22;20019;-81
2022/11/09 09:33:01;;;;;;;52.60;23.08;;;;;;;;;;6264029;22;20004;-82
2022/11/09 09:35:27;;;;;;;48.65;21.08;;;;;;;;;;6285483;22;20538;-82
2022/11/09 09:37:53;;;;;;;52.33;23.17;;;;;;;;;;6255734;22;20008;-83
2022/11/09 09:40:24;;;;;;;47.45;20.95;;;;;;;;;;6284373;22;20000;-82
2022/11/09 09:42:52;;;;;;;45.40;21.85;;;;;;;;;;6285246;22;19995;-83
2022/11/09 09:45:19;;;;;;;44.25;21.73;;;;;;;;;;6284961;22;20011;-82
2022/11/09 09:47:52;;;;;;;49.33;21.75;;;;;;;;;;6285722;22;20003;-82
2022/11/09 09:50:20;;;;;;;44.22;21.33;;;;;;;;;;6284313;22;20000;-83
2022/11/09 09:53:07;;;;;;;48.33;21.73;;;;;;;;;;6283116;22;20039;-83
2022/11/09 09:55:39;;;;;;;45.45;21.45;;;;;;;;;;6284027;22;20073;-83
2022/11/09 09:58:13;;;;;;;45.85;20.70;;;;;;;;;;6256645;22;20145;-82
2022/11/09 10:00:40;;;;;;;41.30;20.23;;;;;;;;;;6284393;22;19996;-83
2022/11/09 10:03:14;;;;;;;48.20;20.45;;;;;;;;;;6285193;22;19996;-82
2022/11/09 10:05:58;;;;;;;45.85;21.23;;;;;;;;;;6269290;22;20011;-82
2022/11/09 10:08:31;;;;;;;45.80;20.67;;;;;;;;;;6301519;22;20004;-81
2022/11/09 10:11:00;;;;;;;41.03;18.80;;;;;;;;;;6288234;22;20085;-82
2022/11/09 10:13:26;;;;;;;42.03;19.35;;;;;;;;;;6256383;22;20004;-83
2022/11/09 10:15:52;;;;;;;46.70;21.70;;;;;;;;;;6256417;22;20038;-81
2022/11/09 10:18:37;;;;;;;43.53;19.80;;;;;;;;;;6283392;22;20096;-82
2022/11/09 10:21:20;;;;;;;43.20;19.52;;;;;;;;;;6255883;22;20095;-82
2022/11/09 10:23:59;;;;;;;39.80;18.00;;;;;;;;;;6282201;22;19996;-83
2022/11/09 10:26:44;;;;;;;46.58;20.90;;;;;;;;;;6284140;22;19999;-83
2022/11/09 10:29:24;;;;;;;45.92;19.38;;;;;;;;;;6255629;22;19999;-82
2022/11/09 10:31:51;;;;;;;39.20;17.58;;;;;;;;;;6282894;22;20075;-82
2022/11/09 10:34:24;;;;;;;38.13;19.27;;;;;;;;;;6284744;22;20021;-82
2022/11/09 10:37:13;;;;;;;43.97;19.45;;;;;;;;;;6281859;22;20339;-81
2022/11/09 10:39:49;;;;;;;40.38;17.90;;;;;;;;;;6262786;22;20003;-83
2022/11/09 10:42:15;;;;;;;34.47;17.13;;;;;;;;;;6286168;22;19995;-83
2022/11/09 10:44:41;;;;;;;41.63;18.60;;;;;;;;;;6258834;22;20069;-83
2022/11/09 10:47:12;;;;;;;41.50;20.20;;;;;;;;;;6260008;22;20452;-83
2022/11/09 10:49:39;;;;;;;33.03;17.13;;;;;;;;;;6286142;22;20402;-84
2022/11/09 10:52:06;;;;;;;41.95;18.15;;;;;;;;;;6286614;22;20000;-83
2022/11/09 10:54:33;;;;;;;38.85;19.88;;;;;;;;;;6286227;22;20034;-83
2022/11/09 10:57:18;;;;;;;38.67;19.73;;;;;;;;;;6285919;22;20035;-83
2022/11/09 10:59:44;;;;;;;36.42;17.63;;;;;;;;;;6286692;22;20046;-82
2022/11/09 11:02:22;;;;;;;44.35;18.25;;;;;;;;;;6287536;22;20006;-82
2022/11/09 11:04:48;;;;;;;44.60;19.75;;;;;;;;;;6258710;22;20011;-83
2022/11/09 11:07:15;;;;;;;43.45;19.45;;;;;;;;;;6286826;22;20000;-83
2022/11/09 11:09:41;;;;;;;43.67;19.13;;;;;;;;;;6287082;22;20004;-83
2022/11/09 11:12:19;;;;;;;39.15;18.38;;;;;;;;;;6284924;22;20502;-83
2022/11/09 11:14:45;;;;;;;39.72;18.20;;;;;;;;;;6257756;22;20129;-83
2022/11/09 11:17:25;;;;;;;35.53;18.55;;;;;;;;;;6259790;22;20081;-83
2022/11/09 11:19:52;;;;;;;43.08;18.85;;;;;;;;;;6291321;22;20063;-83
2022/11/09 11:22:23;;;;;;;44.15;19.73;;;;;;;;;;6261329;22;20007;-84
2022/11/09 11:24:59;;;;;;;48.00;20.33;;;;;;;;;;6295886;22;19995;-81
2022/11/09 11:27:40;;;;;;;40.63;19.67;;;;;;;;;;6292430;22;19999;-84
2022/11/09 11:30:11;;;;;;;39.58;18.63;;;;;;;;;;6288193;22;20011;-83
2022/11/09 11:32:37;;;;;;;36.60;18.88;;;;;;;;;;6286484;22;20407;-83
2022/11/09 11:35:14;;;;;;;40.90;19.42;;;;;;;;;;6259399;22;20007;-83
2022/11/09 11:37:43;;;;;;;42.53;18.02;;;;;;;;;;6285957;22;20007;-83
2022/11/09 11:40:16;;;;;;;32.80;16.20;;;;;;;;;;6287023;22;19996;-83
2022/11/09 11:42:42;;;;;;;39.75;18.73;;;;;;;;;;6286562;22;19999;-84
2022/11/09 11:45:15;;;;;;;38.55;18.38;;;;;;;;;;6286948;22;20007;-83
2022/11/09 11:48:13;;;;;;;31.08;15.70;;;;;;;;;;6286668;22;20470;-83
2022/11/09 11:50:45;;;;;;;40.38;19.35;;;;;;;;;;6132920;23;20068;-83
2022/11/09 11:53:23;;;;;;;38.40;18.27;;;;;;;;;;6132053;23;20017;-83
2022/11/09 11:55:58;;;;;;;37.53;18.25;;;;;;;;;;6132976;23;20229;-83
2022/11/09 11:58:43;;;;;;;34.25;17.27;;;;;;;;;;6107619;23;20020;-83
2022/11/09 12:01:18;;;;;;;38.65;18.58;;;;;;;;;;6107793;23;20014;-83
2022/11/09 12:03:50;;;;;;;40.58;18.60;;;;;;;;;;6132038;23;20002;-83
2022/11/09 12:06:16;;;;;;;43.37;21.87;;;;;;;;;;6131954;23;20045;-82
2022/11/09 12:08:41;;;;;;;38.60;17.50;;;;;;;;;;6131594;23;20002;-83
2022/11/09 12:11:09;;;;;;;39.00;18.50;;;;;;;;;;6108624;23;20154;-83
2022/11/09 12:13:53;;;;;;;36.90;17.58;;;;;;;;;;6127416;23;20051;-82
2022/11/09 12:16:22;;;;;;;39.38;20.58;;;;;;;;;;6129274;23;20061;-82
2022/11/09 12:19:06;;;;;;;39.10;18.65;;;;;;;;;;6129368;23;20009;-82
2022/11/09 12:21:46;;;;;;;37.25;17.95;;;;;;;;;;6128383;23;20317;-82
2022/11/09 12:24:21;;;;;;;33.55;17.40;;;;;;;;;;6129385;23;20017;-81
2022/11/09 12:26:54;;;;;;;38.75;17.60;;;;;;;;;;6240345;22;20002;-81
2022/11/09 12:29:22;;;;;;;33.00;16.30;;;;;;;;;;6282481;22;20029;-81
2022/11/09 12:32:07;;;;;;;32.60;16.13;;;;;;;;;;6281514;22;20422;-81
2022/11/09 12:34:39;;;;;;;33.55;16.52;;;;;;;;;;6283097;22;20000;-81
2022/11/09 12:37:26;;;;;;;41.30;19.23;;;;;;;;;;6283431;22;20078;-81
2022/11/09 12:39:53;;;;;;;30.85;15.20;;;;;;;;;;6282555;22;20427;-81
2022/11/09 12:42:19;;;;;;;41.08;18.75;;;;;;;;;;6282764;22;20003;-81
2022/11/09 12:45:01;;;;;;;34.05;17.02;;;;;;;;;;6254485;22;20011;-81
2022/11/09 12:47:29;;;;;;;33.47;15.65;;;;;;;;;;6282340;22;20053;-81
2022/11/09 12:49:55;;;;;;;39.15;19.38;;;;;;;;;;6282210;22;20519;-81
2022/11/09 12:52:25;;;;;;;35.80;18.05;;;;;;;;;;6283050;22;20004;-81
2022/11/09 12:54:52;;;;;;;39.90;18.23;;;;;;;;;;6283291;22;20419;-81
2022/11/09 12:57:23;;;;;;;39.28;17.92;;;;;;;;;;6283000;22;20036;-81
2022/11/09 12:59:52;;;;;;;38.40;16.73;;;;;;;;;;6281996;22;20002;-81
2022/11/09 13:02:21;;;;;;;41.67;20.73;;;;;;;;;;6281241;22;19996;-81
2022/11/09 13:04:57;;;;;;;38.58;18.55;;;;;;;;;;6282033;22;20545;-82
2022/11/09 13:07:33;;;;;;;39.53;16.90;;;;;;;;;;6282401;22;20003;-82
2022/11/09 13:10:01;;;;;;;41.10;17.58;;;;;;;;;;6282930;22;20003;-81
2022/11/09 13:12:32;;;;;;;39.85;20.65;;;;;;;;;;6283724;22;20004;-81
2022/11/09 13:15:11;;;;;;;40.80;18.90;;;;;;;;;;6296165;22;20029;-79
2022/11/09 13:17:37;;;;;;;37.55;20.50;;;;;;;;;;6293565;22;20508;-82
2022/11/09 13:20:23;;;;;;;36.58;19.40;;;;;;;;;;6281594;22;19996;-81
2022/11/09 13:22:52;;;;;;;36.63;18.40;;;;;;;;;;6280916;22;20000;-81
2022/11/09 13:25:46;;;;;;;38.10;18.63;;;;;;;;;;6254172;22;20375;-81
2022/11/09 13:28:27;;;;;;;36.95;18.58;;;;;;;;;;6286394;22;20029;-82
2022/11/09 13:30:59;;;;;;;40.30;17.42;;;;;;;;;;6293449;22;20000;-81
2022/11/09 13:33:28;;;;;;;38.20;19.10;;;;;;;;;;6295194;22;20055;-81
2022/11/09 13:35:54;;;;;;;41.33;20.20;;;;;;;;;;6294119;22;20000;-81
2022/11/09 13:38:20;;;;;;;39.97;19.05;;;;;;;;;;6288581;22;20000;-81
2022/11/09 13:40:48;;;;;;;35.00;18.88;;;;;;;;;;6281456;22;19996;-81
2022/11/09 13:43:18;;;;;;;37.78;17.40;;;;;;;;;;6281149;22;19999;-81
2022/11/09 13:45:46;;;;;;;36.67;17.90;;;;;;;;;;6280300;22;19999;-81
2022/11/09 13:48:31;;;;;;;52.28;23.88;;;;;;;;;;6279351;22;20004;-81
2022/11/09 13:51:00;;;;;;;37.42;20.65;;;;;;;;;;6280698;22;20003;-80
2022/11/09 13:53:26;;;;;;;35.75;18.52;;;;;;;;;;6278898;22;20061;-80
2022/11/09 13:55:58;;;;;;;34.38;17.65;;;;;;;;;;6256475;22;20011;-79
2022/11/09 13:58:28;;;;;;;42.73;19.73;;;;;;;;;;6266566;22;20031;-79
2022/11/09 14:00:54;;;;;;;36.47;20.13;;;;;;;;;;6290310;22;20087;-79
2022/11/09 14:03:24;;;;;;;41.42;20.25;;;;;;;;;;6284140;22;20336;-81
2022/11/09 14:05:55;;;;;;;51.30;25.90;;;;;;;;;;6279951;22;20022;-81
2022/11/09 14:08:22;;;;;;;39.10;19.85;;;;;;;;;;6279265;22;20010;-79
2022/11/09 14:10:59;;;;;;;42.20;19.88;;;;;;;;;;6251540;22;20007;-81
2022/11/09 14:13:35;;;;;;;34.45;18.15;;;;;;;;;;6251919;22;20035;-80
2022/11/09 14:16:21;;;;;;;38.30;19.05;;;;;;;;;;6279344;22;20003;-81
2022/11/09 14:19:06;;;;;;;38.45;18.52;;;;;;;;;;6279937;22;20000;-80
2022/11/09 14:21:48;;;;;;;35.65;20.15;;;;;;;;;;6279513;22;20079;-81
2022/11/09 14:24:16;;;;;;;41.47;21.80;;;;;;;;;;6279115;22;20022;-80